Time;durP1;ratioP1;P1;durP2;ratioP2;P2;SDS_P1;SDS_P2;PMS_P1;PMS_P2;Temp;Humidity;BMP_temperature;BMP_pressure;BME280_temperature;BME280_humidity;BME280_pressure;Samples;Min_cycle;Max_cycle;Signal;HPM_P1;HPM_P2
2023/11/21 00:02:18;;;;;;;3.85;1.10;;;10.90;99.90;;;;;;5016220;28;20501;-79
2023/11/21 00:04:45;;;;;;;7.53;1.38;;;10.90;99.90;;;;;;5006581;28;20137;-79
2023/11/21 00:07:12;;;;;;;4.43;1.13;;;10.90;99.90;;;;;;5009294;28;20658;-78
2023/11/21 00:09:39;;;;;;;3.17;0.98;;;10.90;99.90;;;;;;5005212;28;20046;-78
2023/11/21 00:12:09;;;;;;;5.93;2.03;;;10.90;99.90;;;;;;5014881;28;20049;-79
2023/11/21 00:14:38;;;;;;;4.88;1.10;;;10.90;99.90;;;;;;5004606;28;20486;-79
2023/11/21 00:17:05;;;;;;;4.97;1.50;;;10.90;99.90;;;;;;5018462;28;20440;-78
2023/11/21 00:19:33;;;;;;;4.20;1.10;;;10.90;99.90;;;;;;5006351;28;20085;-79
2023/11/21 00:22:00;;;;;;;6.53;1.10;;;10.90;99.90;;;;;;5005563;28;20103;-79
2023/11/21 00:24:26;;;;;;;6.82;0.95;;;10.90;99.90;;;;;;5011814;28;20050;-79
2023/11/21 00:26:53;;;;;;;2.92;0.98;;;10.90;99.90;;;;;;5008708;28;20105;-79
2023/11/21 00:29:20;;;;;;;2.90;0.98;;;10.90;99.90;;;;;;5012010;28;20053;-79
2023/11/21 00:31:47;;;;;;;6.57;1.13;;;10.90;99.90;;;;;;5013758;28;20046;-78
2023/11/21 00:34:13;;;;;;;3.13;1.00;;;10.90;99.90;;;;;;5009778;28;20394;-79
2023/11/21 00:36:40;;;;;;;5.47;1.13;;;10.90;99.90;;;;;;5007305;28;20043;-78
2023/11/21 00:39:07;;;;;;;9.45;1.13;;;10.80;99.90;;;;;;5017171;28;20045;-80
2023/11/21 00:41:36;;;;;;;5.00;1.02;;;10.80;99.90;;;;;;5010480;28;20057;-80
2023/11/21 00:44:03;;;;;;;3.20;1.33;;;10.80;99.90;;;;;;5012250;28;20508;-79
2023/11/21 00:46:32;;;;;;;3.42;0.90;;;10.70;99.90;;;;;;5008918;28;20101;-79
2023/11/21 00:48:59;;;;;;;6.78;1.45;;;10.70;99.90;;;;;;5018154;28;20053;-79
2023/11/21 00:51:25;;;;;;;4.82;1.08;;;10.70;99.90;;;;;;5007270;28;20658;-78
2023/11/21 00:53:52;;;;;;;2.05;0.73;;;10.70;99.90;;;;;;5002915;28;20046;-79
2023/11/21 00:56:19;;;;;;;2.47;0.60;;;10.60;99.90;;;;;;5012782;28;20042;-79
2023/11/21 00:58:49;;;;;;;5.20;0.93;;;10.60;99.90;;;;;;5012879;28;20088;-80
2023/11/21 01:01:16;;;;;;;4.75;0.98;;;10.60;99.90;;;;;;5015208;28;20049;-79
2023/11/21 01:03:43;;;;;;;4.40;1.02;;;10.60;99.90;;;;;;5016754;28;20053;-79
2023/11/21 01:06:10;;;;;;;5.18;0.95;;;10.60;99.90;;;;;;5013452;28;20045;-79
2023/11/21 01:08:40;;;;;;;4.15;0.80;;;10.60;99.90;;;;;;5014648;28;20045;-79
2023/11/21 01:11:08;;;;;;;3.38;0.93;;;10.50;99.90;;;;;;4998300;28;20087;-80
2023/11/21 01:13:35;;;;;;;5.55;1.25;;;10.60;99.90;;;;;;5009158;28;20082;-79
2023/11/21 01:16:03;;;;;;;4.63;1.17;;;10.60;99.90;;;;;;5017679;28;20081;-78
2023/11/21 01:18:30;;;;;;;3.58;1.17;;;10.60;99.90;;;;;;5012449;28;20054;-78
2023/11/21 01:20:57;;;;;;;2.63;0.90;;;10.50;99.90;;;;;;5022740;28;20292;-79
2023/11/21 01:23:24;;;;;;;4.68;0.88;;;10.50;99.90;;;;;;5011685;28;20050;-79
2023/11/21 01:25:51;;;;;;;4.43;0.80;;;10.50;99.90;;;;;;5020116;28;20470;-78
2023/11/21 01:28:19;;;;;;;2.95;0.95;;;10.50;99.90;;;;;;5012565;28;20042;-79
2023/11/21 01:30:48;;;;;;;4.10;1.23;;;10.50;99.90;;;;;;5020281;28;20046;-79
2023/11/21 01:33:15;;;;;;;2.03;1.02;;;10.60;99.90;;;;;;4994372;28;20042;-78
2023/11/21 01:35:42;;;;;;;4.63;0.80;;;10.50;99.90;;;;;;5015887;28;20046;-79
2023/11/21 01:38:09;;;;;;;3.17;0.73;;;10.60;99.90;;;;;;5014301;28;20096;-78
2023/11/21 01:40:36;;;;;;;2.47;1.00;;;10.60;99.90;;;;;;5012525;28;20049;-79
2023/11/21 01:43:06;;;;;;;4.57;1.00;;;10.60;99.90;;;;;;5021838;28;20049;-78
2023/11/21 01:45:33;;;;;;;5.60;1.10;;;10.50;99.90;;;;;;5013514;28;20072;-79
2023/11/21 01:48:02;;;;;;;4.05;1.30;;;10.50;99.90;;;;;;5017084;28;20046;-79
2023/11/21 01:50:29;;;;;;;3.30;1.02;;;10.50;99.90;;;;;;5012459;28;20501;-79
2023/11/21 01:52:56;;;;;;;4.78;1.17;;;10.50;99.90;;;;;;5003541;28;20105;-79
2023/11/21 01:55:23;;;;;;;2.15;0.70;;;10.50;99.90;;;;;;4991045;28;20054;-78
2023/11/21 01:57:56;;;;;;;6.47;1.15;;;10.50;99.90;;;;;;5004889;28;20054;-78
2023/11/21 02:00:23;;;;;;;5.80;0.80;;;10.50;99.90;;;;;;5008566;28;20045;-80
2023/11/21 02:02:50;;;;;;;2.30;0.80;;;10.50;99.90;;;;;;5016993;28;20546;-79
2023/11/21 02:05:19;;;;;;;3.55;0.80;;;10.50;99.90;;;;;;5009324;28;20096;-78
2023/11/21 02:07:49;;;;;;;5.03;0.95;;;10.60;99.90;;;;;;5008491;28;20057;-79
2023/11/21 02:10:16;;;;;;;1.75;0.80;;;10.60;99.90;;;;;;4991552;28;20092;-79
2023/11/21 02:12:44;;;;;;;2.80;0.88;;;10.50;99.90;;;;;;5013338;28;20536;-78
2023/11/21 02:15:19;;;;;;;3.55;0.90;;;10.50;99.90;;;;;;5017737;28;20428;-79
2023/11/21 02:17:50;;;;;;;5.10;0.90;;;10.60;99.90;;;;;;5012211;28;20047;-78
2023/11/21 02:20:19;;;;;;;3.63;0.95;;;10.50;99.90;;;;;;5016850;28;20052;-79
2023/11/21 02:22:57;;;;;;;3.13;0.75;;;10.50;99.90;;;;;;5010877;28;20054;-79
2023/11/21 02:25:29;;;;;;;4.03;1.05;;;10.60;99.90;;;;;;5020554;28;20046;-80
2023/11/21 02:27:57;;;;;;;4.40;1.20;;;10.60;99.90;;;;;;5012738;28;20050;-79
2023/11/21 02:30:31;;;;;;;2.10;0.82;;;10.60;99.90;;;;;;5018827;28;20049;-78
2023/11/21 02:32:59;;;;;;;7.03;1.30;;;10.60;99.90;;;;;;5010563;28;20046;-80
2023/11/21 02:35:26;;;;;;;4.45;1.00;;;10.50;99.90;;;;;;5011601;28;20084;-78
2023/11/21 02:37:53;;;;;;;3.63;0.90;;;10.50;99.90;;;;;;4995681;28;20054;-78
2023/11/21 02:40:20;;;;;;;5.38;0.98;;;10.50;99.90;;;;;;4994814;28;20048;-79
2023/11/21 02:42:48;;;;;;;1.75;0.85;;;10.40;99.90;;;;;;4992572;28;20453;-79
2023/11/21 02:45:18;;;;;;;4.50;1.23;;;10.50;99.90;;;;;;5014250;28;20145;-79
2023/11/21 02:47:45;;;;;;;3.13;0.95;;;10.50;99.90;;;;;;5004771;28;20046;-79
2023/11/21 02:50:13;;;;;;;3.40;0.82;;;10.40;99.90;;;;;;5009286;28;20048;-79
2023/11/21 02:52:40;;;;;;;4.55;1.10;;;10.40;99.90;;;;;;5015258;28;20049;-79
2023/11/21 02:55:07;;;;;;;3.65;1.00;;;10.40;99.90;;;;;;5010392;28;20505;-79
2023/11/21 02:57:33;;;;;;;6.18;1.10;;;10.40;99.90;;;;;;5022791;28;20076;-80
2023/11/21 03:00:00;;;;;;;3.47;0.93;;;10.40;99.90;;;;;;5011055;28;20499;-79
2023/11/21 03:02:27;;;;;;;4.80;1.13;;;10.40;99.90;;;;;;5017830;28;20100;-78
2023/11/21 03:04:54;;;;;;;3.83;0.80;;;10.50;99.90;;;;;;5007639;28;20125;-80
2023/11/21 03:07:21;;;;;;;3.88;0.70;;;10.50;99.90;;;;;;4999724;28;20060;-79
2023/11/21 03:09:48;;;;;;;3.80;0.85;;;10.50;99.90;;;;;;5012091;28;20037;-79
2023/11/21 03:12:15;;;;;;;3.83;0.90;;;10.50;99.90;;;;;;4998975;28;20317;-79
2023/11/21 03:14:42;;;;;;;1.85;0.60;;;10.50;99.90;;;;;;5011080;28;20498;-79
2023/11/21 03:17:09;;;;;;;2.00;0.75;;;10.40;99.90;;;;;;5014492;28;20111;-79
2023/11/21 03:19:36;;;;;;;3.00;0.95;;;10.50;99.90;;;;;;5017113;28;20406;-79
2023/11/21 03:22:04;;;;;;;2.05;0.70;;;10.40;99.90;;;;;;5012801;28;20493;-79
2023/11/21 03:24:30;;;;;;;5.07;1.13;;;10.40;99.90;;;;;;5018880;28;20088;-79
2023/11/21 03:26:57;;;;;;;2.67;1.15;;;10.30;99.90;;;;;;5010668;28;20058;-79
2023/11/21 03:29:24;;;;;;;3.38;1.00;;;10.20;99.90;;;;;;5015179;28;20156;-79
2023/11/21 03:31:51;;;;;;;1.75;0.65;;;10.10;99.90;;;;;;5008373;28;20042;-78
2023/11/21 03:34:27;;;;;;;3.65;1.05;;;10.10;99.90;;;;;;5001578;28;20523;-79
2023/11/21 03:36:55;;;;;;;5.57;0.90;;;10.00;99.90;;;;;;5007687;28;20047;-79
2023/11/21 03:39:22;;;;;;;5.15;1.02;;;9.90;99.90;;;;;;5017341;28;20050;-79
2023/11/21 03:41:49;;;;;;;1.77;0.80;;;9.80;99.90;;;;;;5006073;28;20077;-79
2023/11/21 03:44:17;;;;;;;1.65;0.82;;;9.80;99.90;;;;;;4998934;28;20053;-79
2023/11/21 03:46:44;;;;;;;1.13;0.50;;;9.80;99.90;;;;;;5000199;28;20405;-79
2023/11/21 03:49:11;;;;;;;2.50;0.65;;;9.80;99.90;;;;;;5014655;28;20041;-79
2023/11/21 03:51:38;;;;;;;4.55;0.77;;;9.80;99.90;;;;;;5011103;28;20394;-79
2023/11/21 03:54:04;;;;;;;1.75;0.70;;;9.80;99.90;;;;;;5012365;28;20046;-78
2023/11/21 03:56:31;;;;;;;1.88;0.80;;;9.80;99.90;;;;;;5009519;28;20042;-79
2023/11/21 03:58:58;;;;;;;3.17;0.70;;;9.80;99.90;;;;;;5009586;28;20058;-79
2023/11/21 04:01:24;;;;;;;2.13;0.77;;;9.80;99.90;;;;;;5009676;28;20355;-79
2023/11/21 04:03:51;;;;;;;4.20;1.10;;;9.80;99.90;;;;;;5008525;28;20050;-78
2023/11/21 04:06:18;;;;;;;1.42;0.60;;;9.80;99.90;;;;;;5021032;28;20081;-79
2023/11/21 04:08:45;;;;;;;2.63;0.90;;;9.90;99.90;;;;;;5010485;28;20100;-80
2023/11/21 04:11:12;;;;;;;3.78;0.90;;;9.90;99.90;;;;;;5019237;28;20077;-79
2023/11/21 04:13:40;;;;;;;4.80;1.05;;;9.90;99.90;;;;;;5012990;28;20072;-79
2023/11/21 04:16:08;;;;;;;5.50;1.85;;;9.90;99.90;;;;;;5009732;28;20046;-79
2023/11/21 04:18:38;;;;;;;5.43;1.10;;;9.90;99.90;;;;;;5008673;28;20046;-79
2023/11/21 04:21:05;;;;;;;;;;;9.90;99.90;;;;;;5015228;28;20046;-79
2023/11/21 04:23:32;;;;;;;3.38;0.70;;;9.90;99.90;;;;;;5010958;28;19928;-79
2023/11/21 04:26:01;;;;;;;3.83;0.93;;;9.90;99.90;;;;;;5011851;28;20050;-78
2023/11/21 04:28:29;;;;;;;4.05;0.90;;;10.00;99.90;;;;;;5016007;28;20413;-79
2023/11/21 04:30:56;;;;;;;2.60;0.60;;;10.00;99.90;;;;;;5006691;28;20058;-78
2023/11/21 04:33:23;;;;;;;1.83;0.77;;;10.00;99.90;;;;;;5019196;28;20045;-79
2023/11/21 04:35:49;;;;;;;2.05;0.80;;;10.00;99.90;;;;;;5011916;28;20097;-78
2023/11/21 04:38:16;;;;;;;4.07;0.70;;;10.10;99.90;;;;;;5022554;28;20501;-77
2023/11/21 04:40:43;;;;;;;3.35;0.70;;;10.00;99.90;;;;;;5012045;28;20046;-80
2023/11/21 04:43:10;;;;;;;1.92;0.75;;;10.00;99.90;;;;;;5021764;28;20050;-79
2023/11/21 04:45:37;;;;;;;1.92;0.90;;;10.00;99.90;;;;;;5010384;28;20407;-78
2023/11/21 04:48:03;;;;;;;2.63;0.70;;;10.00;99.90;;;;;;5018384;28;20050;-80
2023/11/21 04:50:31;;;;;;;2.50;0.68;;;10.10;99.90;;;;;;5004628;28;20045;-80
2023/11/21 04:52:57;;;;;;;3.55;0.75;;;10.10;99.90;;;;;;5011345;28;20101;-77
2023/11/21 04:55:27;;;;;;;4.28;0.70;;;10.10;99.90;;;;;;5013512;28;20052;-80
2023/11/21 04:57:55;;;;;;;0.90;0.68;;;10.10;99.90;;;;;;5015751;28;20406;-79
2023/11/21 05:00:21;;;;;;;1.83;0.73;;;10.10;99.90;;;;;;5019556;28;20088;-79
2023/11/21 05:02:48;;;;;;;3.72;0.80;;;10.10;99.90;;;;;;5009425;28;20050;-79
2023/11/21 05:05:15;;;;;;;2.67;0.50;;;10.10;99.90;;;;;;5016534;28;20955;-79
2023/11/21 05:07:42;;;;;;;6.53;1.00;;;10.10;99.90;;;;;;5013807;28;20037;-78
2023/11/21 05:10:14;;;;;;;2.50;0.65;;;10.00;99.90;;;;;;5005139;28;20058;-80
2023/11/21 05:12:42;;;;;;;2.35;0.65;;;10.10;99.90;;;;;;5009120;28;20041;-78
2023/11/21 05:15:09;;;;;;;2.22;0.80;;;10.10;99.90;;;;;;5022520;28;20050;-79
2023/11/21 05:17:43;;;;;;;1.02;0.80;;;10.10;99.90;;;;;;5014283;28;20046;-79
2023/11/21 05:20:13;;;;;;;2.95;0.77;;;10.10;99.90;;;;;;5022804;28;20105;-78
2023/11/21 05:22:41;;;;;;;3.45;0.70;;;10.10;99.90;;;;;;5017380;28;20042;-79
2023/11/21 05:25:09;;;;;;;2.13;0.55;;;10.10;99.90;;;;;;5017069;28;20053;-79
2023/11/21 05:27:36;;;;;;;1.05;0.57;;;10.10;99.90;;;;;;5014659;28;20045;-79
2023/11/21 05:30:12;;;;;;;3.42;0.60;;;10.20;99.90;;;;;;5010407;28;20096;-78
2023/11/21 05:32:39;;;;;;;1.27;0.57;;;10.20;99.90;;;;;;5019194;28;20081;-78
2023/11/21 05:35:09;;;;;;;2.60;1.40;;;10.20;99.90;;;;;;5001436;28;20461;-78
2023/11/21 05:37:36;;;;;;;2.50;1.00;;;10.20;99.90;;;;;;5014695;28;20064;-79
2023/11/21 05:40:05;;;;;;;3.30;1.30;;;10.20;99.90;;;;;;5013419;28;20494;-79
2023/11/21 05:42:33;;;;;;;1.85;0.70;;;10.20;99.90;;;;;;5016647;28;20119;-79
2023/11/21 05:45:10;;;;;;;2.67;0.90;;;10.30;99.90;;;;;;5005624;28;20054;-79
2023/11/21 05:47:40;;;;;;;2.95;0.80;;;10.30;99.90;;;;;;5019928;28;20046;-78
2023/11/21 05:50:14;;;;;;;3.05;1.10;;;10.20;99.90;;;;;;5009619;28;20462;-78
2023/11/21 05:52:45;;;;;;;3.47;0.77;;;10.30;99.90;;;;;;4997107;28;20050;-78
2023/11/21 05:55:12;;;;;;;2.92;0.85;;;10.20;99.90;;;;;;5015599;28;20050;-79
2023/11/21 05:57:41;;;;;;;3.03;1.20;;;10.20;99.90;;;;;;4995139;28;20046;-79
2023/11/21 06:00:44;;;;;;;2.90;1.00;;;10.30;99.90;;;;;;5014358;28;20054;-80
2023/11/21 06:03:03;;;;;;;4.90;2.38;;;10.20;99.90;;;;;;5008155;28;20077;-79
2023/11/21 06:05:32;;;;;;;3.33;1.83;;;10.30;99.90;;;;;;5022416;28;20049;-79
2023/11/21 06:08:00;;;;;;;4.57;1.73;;;10.30;99.90;;;;;;5006873;28;20046;-79
2023/11/21 06:10:28;;;;;;;3.20;2.05;;;10.30;99.90;;;;;;5016381;28;20073;-79
2023/11/21 06:12:55;;;;;;;2.97;1.23;;;10.30;99.90;;;;;;4996976;28;20073;-78
2023/11/21 06:15:23;;;;;;;4.38;1.00;;;10.30;99.90;;;;;;5013591;28;20046;-81
2023/11/21 06:17:53;;;;;;;4.85;1.15;;;10.30;99.90;;;;;;5009946;28;20049;-81
2023/11/21 06:20:22;;;;;;;2.63;1.08;;;10.30;99.90;;;;;;5012060;28;20054;-82
2023/11/21 06:22:50;;;;;;;2.33;0.70;;;10.30;99.90;;;;;;5009495;28;20048;-81
2023/11/21 06:25:17;;;;;;;2.13;1.20;;;10.30;99.90;;;;;;5016162;28;20054;-82
2023/11/21 06:27:46;;;;;;;2.17;1.20;;;10.30;99.90;;;;;;5018631;28;20045;-82
2023/11/21 06:30:13;;;;;;;1.98;0.57;;;10.20;99.90;;;;;;5012183;28;20085;-80
2023/11/21 06:32:41;;;;;;;1.27;0.88;;;10.20;99.90;;;;;;5016982;28;20484;-78
2023/11/21 06:35:09;;;;;;;4.50;1.00;;;10.20;99.90;;;;;;5009642;28;20453;-77
2023/11/21 06:37:36;;;;;;;1.80;0.90;;;10.20;99.90;;;;;;5016497;28;20072;-79
2023/11/21 06:40:04;;;;;;;1.65;0.77;;;10.20;99.90;;;;;;5009031;28;20074;-78
2023/11/21 06:42:31;;;;;;;3.33;1.02;;;10.10;99.90;;;;;;5020270;28;20119;-79
2023/11/21 06:44:58;;;;;;;4.28;1.08;;;10.10;99.90;;;;;;5005322;28;20074;-80
2023/11/21 06:47:26;;;;;;;4.43;1.10;;;10.00;99.90;;;;;;5001936;28;20047;-78
2023/11/21 06:49:53;;;;;;;1.80;1.00;;;10.00;99.90;;;;;;5013905;28;20064;-79
2023/11/21 06:52:20;;;;;;;2.40;0.88;;;9.90;99.90;;;;;;5017182;28;20105;-80
2023/11/21 06:54:49;;;;;;;3.00;1.15;;;9.90;99.90;;;;;;5012360;28;20663;-80
2023/11/21 06:57:16;;;;;;;2.88;1.10;;;9.80;99.90;;;;;;5014236;28;20046;-80
2023/11/21 06:59:43;;;;;;;4.65;1.00;;;9.80;99.90;;;;;;5018779;28;20449;-80
2023/11/21 07:02:10;;;;;;;2.88;1.00;;;9.80;99.90;;;;;;5012528;28;20077;-80
2023/11/21 07:04:37;;;;;;;2.10;0.80;;;9.80;99.90;;;;;;5019923;28;20060;-80
2023/11/21 07:07:04;;;;;;;4.00;0.90;;;9.80;99.90;;;;;;5010923;28;20086;-77
2023/11/21 07:09:31;;;;;;;2.13;0.85;;;9.70;99.90;;;;;;5010707;28;20068;-79
2023/11/21 07:11:58;;;;;;;4.82;0.63;;;9.70;99.90;;;;;;5006579;28;20121;-80
2023/11/21 07:14:24;;;;;;;1.45;0.88;;;9.70;99.90;;;;;;5020846;28;20050;-79
2023/11/21 07:16:52;;;;;;;3.33;0.82;;;9.70;99.90;;;;;;5008947;28;20037;-79
2023/11/21 07:19:20;;;;;;;2.10;1.13;;;9.70;99.90;;;;;;5000951;28;20046;-79
2023/11/21 07:21:50;;;;;;;2.17;0.77;;;9.60;99.90;;;;;;5009078;28;20068;-80
2023/11/21 07:24:17;;;;;;;2.25;0.90;;;9.60;99.90;;;;;;5016292;28;20132;-81
2023/11/21 07:26:43;;;;;;;2.40;0.68;;;9.60;99.90;;;;;;5012231;28;20104;-80
2023/11/21 07:29:11;;;;;;;2.63;1.20;;;9.60;99.90;;;;;;5014152;28;20101;-80
2023/11/21 07:31:38;;;;;;;5.90;1.10;;;9.50;99.90;;;;;;5006626;28;20048;-79
2023/11/21 07:34:05;;;;;;;2.90;1.00;;;9.50;99.90;;;;;;5007375;28;20073;-80
2023/11/21 07:36:32;;;;;;;1.20;0.77;;;9.50;99.90;;;;;;5016488;28;20452;-80
2023/11/21 07:39:00;;;;;;;2.60;0.93;;;9.50;99.90;;;;;;4998082;28;20056;-79
2023/11/21 07:41:26;;;;;;;3.15;0.80;;;9.50;99.90;;;;;;5014734;28;20053;-79
2023/11/21 07:43:57;;;;;;;1.95;1.17;;;9.40;99.90;;;;;;5006297;28;20081;-80
2023/11/21 07:46:26;;;;;;;5.13;1.45;;;9.40;99.90;;;;;;5019477;28;20054;-79
2023/11/21 07:48:55;;;;;;;1.95;1.27;;;9.40;99.90;;;;;;4996505;28;20085;-79
2023/11/21 07:51:22;;;;;;;3.55;1.20;;;9.40;99.90;;;;;;5018038;28;20046;-80
2023/11/21 07:53:49;;;;;;;3.65;1.55;;;9.40;99.90;;;;;;5014174;28;20417;-80
2023/11/21 07:56:16;;;;;;;6.10;1.23;;;9.40;99.90;;;;;;5021836;28;20054;-80
2023/11/21 07:58:43;;;;;;;2.05;1.48;;;9.50;99.90;;;;;;5009039;28;20044;-80
2023/11/21 08:01:09;;;;;;;3.17;1.35;;;9.50;99.90;;;;;;5011685;28;20052;-80
2023/11/21 08:03:36;;;;;;;2.65;1.50;;;9.50;99.90;;;;;;5009520;28;20064;-80
2023/11/21 08:06:05;;;;;;;3.83;2.10;;;9.60;99.90;;;;;;5013266;28;20045;-81
2023/11/21 08:08:33;;;;;;;4.95;1.75;;;9.70;99.90;;;;;;5020379;28;20482;-80
2023/11/21 08:11:01;;;;;;;2.63;1.73;;;9.80;99.90;;;;;;5016453;28;20045;-80
2023/11/21 08:13:30;;;;;;;2.45;1.65;;;9.80;99.90;;;;;;5002551;28;20514;-79
2023/11/21 08:16:02;;;;;;;3.08;1.70;;;9.90;99.90;;;;;;5013836;28;20072;-79
2023/11/21 08:18:29;;;;;;;4.35;2.13;;;10.10;99.90;;;;;;5025057;28;20054;-80
2023/11/21 08:20:57;;;;;;;2.13;1.30;;;10.10;99.90;;;;;;5013136;28;20054;-80
2023/11/21 08:23:27;;;;;;;2.08;1.50;;;10.20;99.90;;;;;;5022660;28;20050;-80
2023/11/21 08:25:54;;;;;;;1.52;1.35;;;10.20;99.90;;;;;;5011706;28;20046;-80
2023/11/21 08:28:25;;;;;;;3.15;1.42;;;10.30;99.90;;;;;;5021806;28;20050;-81
2023/11/21 08:30:54;;;;;;;3.78;2.13;;;10.40;99.90;;;;;;5017372;28;20073;-80
2023/11/21 08:33:21;;;;;;;6.38;3.38;;;10.40;99.90;;;;;;5019719;28;20047;-80
2023/11/21 08:35:48;;;;;;;3.42;2.15;;;10.50;99.90;;;;;;5020789;28;20049;-79
2023/11/21 08:38:15;;;;;;;4.57;1.65;;;10.60;99.90;;;;;;5009327;28;20042;-81
2023/11/21 08:40:42;;;;;;;3.38;1.92;;;10.60;99.90;;;;;;5018544;28;20470;-80
2023/11/21 08:43:09;;;;;;;2.92;1.75;;;10.70;99.90;;;;;;5015630;28;20478;-79
2023/11/21 08:45:36;;;;;;;1.65;1.33;;;10.70;99.90;;;;;;5019106;28;20133;-80
2023/11/21 08:48:03;;;;;;;1.48;1.05;;;10.80;99.90;;;;;;5013904;28;20053;-80
2023/11/21 08:50:30;;;;;;;1.55;1.23;;;10.80;99.90;;;;;;5024404;28;20422;-80
2023/11/21 08:52:56;;;;;;;3.20;1.00;;;10.80;99.90;;;;;;5013861;28;20050;-80
2023/11/21 08:55:24;;;;;;;5.03;1.08;;;10.90;99.90;;;;;;5019855;28;20126;-80
2023/11/21 08:57:50;;;;;;;2.28;0.93;;;10.90;99.90;;;;;;5012039;28;20053;-79
2023/11/21 09:00:18;;;;;;;1.25;1.00;;;11.00;99.90;;;;;;5018918;28;20058;-80
2023/11/21 09:02:45;;;;;;;2.85;0.82;;;11.10;99.90;;;;;;5015125;28;20535;-79
2023/11/21 09:05:14;;;;;;;1.77;0.90;;;11.10;99.90;;;;;;5018135;28;20057;-79
2023/11/21 09:07:42;;;;;;;1.95;0.80;;;11.10;99.90;;;;;;5011649;28;20049;-80
2023/11/21 09:10:09;;;;;;;1.33;0.80;;;11.20;99.90;;;;;;5017242;28;20493;-80
2023/11/21 09:12:40;;;;;;;1.27;0.68;;;11.20;99.90;;;;;;5021998;28;20056;-80
2023/11/21 09:15:07;;;;;;;;;;;11.20;99.90;;;;;;5016155;28;20050;-80
2023/11/21 09:17:34;;;;;;;1.92;0.70;;;11.30;99.90;;;;;;5001079;28;20015;-81
2023/11/21 09:20:05;;;;;;;1.02;0.80;;;11.30;99.90;;;;;;5011291;28;20057;-81
2023/11/21 09:22:32;;;;;;;1.02;0.60;;;11.30;99.90;;;;;;5019849;28;20462;-79
2023/11/21 09:24:59;;;;;;;0.77;0.50;;;11.30;99.90;;;;;;5020840;28;20050;-79
2023/11/21 09:27:26;;;;;;;0.55;0.55;;;11.30;99.90;;;;;;5028991;28;20053;-78
2023/11/21 09:29:53;;;;;;;1.35;0.60;;;11.30;99.90;;;;;;5017287;28;20049;-80
2023/11/21 09:32:21;;;;;;;0.80;0.60;;;11.30;99.90;;;;;;5016747;28;20042;-80
2023/11/21 09:34:51;;;;;;;1.08;0.70;;;11.30;99.90;;;;;;5015092;28;20132;-80
2023/11/21 09:37:18;;;;;;;1.42;0.80;;;11.30;99.90;;;;;;5017614;28;20054;-80
2023/11/21 09:39:47;;;;;;;1.75;0.60;;;11.40;99.90;;;;;;5015263;28;20416;-80
2023/11/21 09:42:23;;;;;;;3.15;0.60;;;11.40;99.90;;;;;;5016118;28;20595;-81
2023/11/21 09:45:07;;;;;;;1.13;0.50;;;11.40;99.90;;;;;;5020132;28;20049;-80
2023/11/21 09:47:38;;;;;;;0.82;0.63;;;11.40;99.90;;;;;;5015455;28;20053;-81
2023/11/21 09:50:10;;;;;;;1.15;0.88;;;11.40;99.90;;;;;;5019514;28;20042;-79
2023/11/21 09:52:52;;;;;;;1.42;0.90;;;11.40;99.90;;;;;;4996425;28;20073;-80
2023/11/21 09:55:21;;;;;;;1.17;0.70;;;11.40;99.90;;;;;;5014692;28;20061;-80
2023/11/21 09:57:51;;;;;;;1.35;0.70;;;11.40;99.90;;;;;;4998219;28;20125;-81
2023/11/21 10:00:20;;;;;;;4.20;0.88;;;11.40;99.90;;;;;;5016580;28;20096;-80
2023/11/21 10:02:49;;;;;;;1.95;1.00;;;11.40;99.90;;;;;;5014621;28;20049;-80
2023/11/21 10:05:17;;;;;;;1.23;0.90;;;11.50;99.90;;;;;;5015486;28;20078;-79
2023/11/21 10:07:45;;;;;;;1.45;0.85;;;11.50;99.90;;;;;;5015339;28;20060;-80
2023/11/21 10:10:13;;;;;;;0.88;0.68;;;11.50;99.90;;;;;;5014569;28;20125;-80
2023/11/21 10:12:43;;;;;;;1.40;0.90;;;11.50;99.90;;;;;;5018470;28;20041;-79
2023/11/21 10:15:11;;;;;;;;;;;11.50;99.90;;;;;;5008917;28;20057;-79
2023/11/21 10:17:43;;;;;;;1.38;0.82;;;11.50;99.90;;;;;;5016640;28;19922;-80
2023/11/21 10:20:13;;;;;;;1.40;0.95;;;11.60;99.90;;;;;;5011135;28;20056;-80
2023/11/21 10:22:41;;;;;;;2.03;0.95;;;11.60;99.90;;;;;;5020253;28;20133;-80
2023/11/21 10:25:14;;;;;;;1.58;0.90;;;11.60;99.90;;;;;;5009124;28;20096;-81
2023/11/21 10:27:41;;;;;;;2.45;1.00;;;11.60;99.90;;;;;;5019993;28;20100;-80
2023/11/21 10:30:12;;;;;;;1.38;0.90;;;11.70;99.90;;;;;;5008830;28;20050;-78
2023/11/21 10:32:40;;;;;;;1.38;1.00;;;11.70;99.90;;;;;;5017749;28;20065;-80
2023/11/21 10:35:10;;;;;;;0.80;0.80;;;11.80;99.90;;;;;;5009135;28;20041;-80
2023/11/21 10:37:40;;;;;;;0.97;0.80;;;11.90;99.90;;;;;;5016374;28;20550;-80
2023/11/21 10:40:11;;;;;;;2.17;1.08;;;11.90;99.90;;;;;;5018746;28;20053;-81
2023/11/21 10:42:40;;;;;;;2.15;0.90;;;12.00;99.90;;;;;;5011334;28;20065;-80
2023/11/21 10:45:17;;;;;;;2.72;0.98;;;12.00;99.90;;;;;;5015420;28;20506;-80
2023/11/21 10:47:44;;;;;;;2.33;1.00;;;12.00;99.90;;;;;;5009622;28;20050;-80
2023/11/21 10:50:11;;;;;;;1.58;0.88;;;12.00;99.90;;;;;;5005905;28;20042;-80
2023/11/21 10:52:47;;;;;;;2.20;0.88;;;12.00;99.90;;;;;;5010588;28;20093;-80
2023/11/21 10:55:19;;;;;;;1.02;0.75;;;12.00;99.90;;;;;;5010330;28;20050;-80
2023/11/21 10:57:49;;;;;;;2.67;1.38;;;12.00;99.90;;;;;;5010359;28;20087;-79
2023/11/21 11:00:19;;;;;;;1.48;0.93;;;12.00;99.90;;;;;;5011463;28;20509;-80
2023/11/21 11:02:49;;;;;;;1.00;0.90;;;12.00;99.90;;;;;;5018217;28;20041;-79
2023/11/21 11:05:19;;;;;;;1.55;1.08;;;11.90;99.90;;;;;;4996575;28;20049;-79
2023/11/21 11:07:52;;;;;;;2.55;0.90;;;11.60;99.90;;;;;;5014776;28;20054;-80
2023/11/21 11:10:20;;;;;;;1.13;0.73;;;11.50;99.90;;;;;;5004067;28;20058;-80
2023/11/21 11:12:47;;;;;;;1.58;0.85;;;11.40;99.90;;;;;;5019711;28;20132;-80
2023/11/21 11:15:16;;;;;;;3.10;1.40;;;11.20;99.90;;;;;;5006736;28;20054;-80
2023/11/21 11:17:44;;;;;;;2.90;1.38;;;11.10;99.90;;;;;;5002983;28;20046;-81
2023/11/21 11:20:16;;;;;;;1.77;1.27;;;11.00;99.90;;;;;;5005115;28;20092;-80
2023/11/21 11:23:17;;;;;;;3.60;1.52;;;10.90;99.90;;;;;;5001562;28;20138;-80
2023/11/21 11:25:49;;;;;;;;;;;10.90;99.90;;;;;;5014487;28;20054;-79
2023/11/21 11:28:29;;;;;;;1.73;1.10;;;10.90;99.90;;;;;;5009499;28;19922;-79
2023/11/21 11:31:41;;;;;;;3.25;1.50;;;10.90;99.90;;;;;;4998592;28;20116;-78
2023/11/21 11:34:22;;;;;;;7.47;1.45;;;10.90;99.90;;;;;;4976404;28;20540;-78
2023/11/21 11:36:55;;;;;;;;;;;10.80;99.90;;;;;;5014592;28;20104;-78
2023/11/21 11:39:36;;;;;;;3.88;1.20;;;10.80;99.90;;;;;;5006482;28;19961;-79
2023/11/21 11:42:06;;;;;;;1.50;1.20;;;10.80;99.90;;;;;;5010592;28;20432;-80
2023/11/21 11:44:51;;;;;;;2.88;1.40;;;10.70;99.90;;;;;;4998456;28;20058;-80
2023/11/21 11:47:24;;;;;;;11.48;1.83;;;10.70;99.90;;;;;;5007253;28;20092;-80
2023/11/21 11:50:10;;;;;;;3.03;1.58;;;10.80;99.90;;;;;;4994226;28;20049;-80
2023/11/21 11:52:52;;;;;;;1.65;1.30;;;10.80;99.90;;;;;;5007217;28;20425;-80
2023/11/21 11:55:21;;;;;;;4.68;1.45;;;10.80;99.90;;;;;;5007062;28;20125;-78
2023/11/21 11:57:50;;;;;;;3.90;1.70;;;10.80;99.90;;;;;;5015089;28;20041;-80
2023/11/21 12:00:29;;;;;;;2.25;1.40;;;10.90;99.90;;;;;;5012782;28;20050;-80
2023/11/21 12:03:03;;;;;;;3.97;1.40;;;10.80;99.90;;;;;;5010721;28;20099;-80
2023/11/21 12:05:33;;;;;;;1.92;1.40;;;10.80;99.90;;;;;;5007057;28;20054;-79
2023/11/21 12:08:02;;;;;;;2.55;1.30;;;10.80;99.90;;;;;;5001320;28;20057;-80
2023/11/21 12:10:31;;;;;;;2.63;1.70;;;10.80;99.90;;;;;;5005965;28;20054;-80
2023/11/21 12:13:00;;;;;;;2.28;1.63;;;10.80;99.90;;;;;;5017045;28;20064;-80
2023/11/21 12:15:30;;;;;;;3.08;1.80;;;10.70;99.90;;;;;;5003333;28;20105;-79
2023/11/21 12:18:00;;;;;;;2.67;1.50;;;10.70;99.90;;;;;;5010630;28;20045;-80
2023/11/21 12:20:28;;;;;;;3.13;1.50;;;10.70;99.90;;;;;;5010256;28;20104;-79
2023/11/21 12:22:56;;;;;;;3.38;1.70;;;10.70;99.90;;;;;;5012067;28;20045;-79
2023/11/21 12:25:28;;;;;;;3.00;1.70;;;10.70;99.90;;;;;;5003527;28;20058;-80
2023/11/21 12:27:57;;;;;;;3.30;1.67;;;10.70;99.90;;;;;;5009974;28;20566;-80
2023/11/21 12:30:27;;;;;;;3.75;1.50;;;10.70;99.90;;;;;;5013772;28;20056;-81
2023/11/21 12:32:55;;;;;;;4.03;1.67;;;10.70;99.90;;;;;;5003737;28;20057;-79
2023/11/21 12:35:25;;;;;;;2.00;1.38;;;10.70;99.90;;;;;;5000947;28;20153;-80
2023/11/21 12:37:53;;;;;;;4.65;1.15;;;10.70;99.90;;;;;;5009325;28;20453;-80
2023/11/21 12:40:22;;;;;;;2.88;1.60;;;10.80;99.90;;;;;;5012914;28;20054;-81
2023/11/21 12:42:58;;;;;;;1.20;1.05;;;10.80;99.90;;;;;;5012471;28;20053;-80
2023/11/21 12:45:27;;;;;;;3.25;1.40;;;10.80;99.90;;;;;;5013551;28;20060;-80
2023/11/21 12:48:03;;;;;;;2.97;1.13;;;10.90;99.90;;;;;;5012306;28;20505;-79
2023/11/21 12:50:36;;;;;;;1.73;1.20;;;10.90;99.90;;;;;;5013515;28;20053;-80
2023/11/21 12:53:08;;;;;;;2.45;1.35;;;10.90;99.90;;;;;;5018868;28;20468;-80
2023/11/21 12:55:39;;;;;;;3.05;1.30;;;10.90;99.90;;;;;;5014299;28;20046;-81
2023/11/21 12:58:12;;;;;;;2.42;1.40;;;11.00;99.90;;;;;;5024921;28;20057;-80
2023/11/21 13:00:46;;;;;;;2.55;0.80;;;11.00;99.90;;;;;;5019022;28;20141;-80